createdAt,value
2023-05-19T00:01:30.742Z,64.83
2023-05-19T00:04:04.247Z,64.74
2023-05-19T00:06:35.909Z,64.74
2023-05-19T00:09:09.947Z,65.27
2023-05-19T00:11:40.429Z,65.76
2023-05-19T00:14:10.573Z,65.40
2023-05-19T00:16:42.379Z,65.18
2023-05-19T00:19:14.528Z,65.23
2023-05-19T00:21:44.574Z,65.64
2023-05-19T00:24:16.694Z,65.21
2023-05-19T00:26:46.863Z,66.04
2023-05-19T00:29:18.612Z,65.89
2023-05-19T00:31:48.479Z,66.25
2023-05-19T00:34:17.673Z,66.15
2023-05-19T00:36:46.727Z,65.85
2023-05-19T00:39:16.569Z,66.32
2023-05-19T00:41:47.602Z,66.10
2023-05-19T00:44:16.879Z,65.93
2023-05-19T00:46:46.847Z,65.91
2023-05-19T00:49:17.069Z,66.63
2023-05-19T00:51:48.611Z,66.01
2023-05-19T00:54:18.502Z,66.15
2023-05-19T00:56:49.279Z,66.17
2023-05-19T00:59:18.406Z,66.67
2023-05-19T01:01:50.926Z,66.77
2023-05-19T01:04:21.573Z,66.73
2023-05-19T01:06:54.499Z,66.55
2023-05-19T01:09:24.772Z,66.92
2023-05-19T01:11:56.195Z,66.37
2023-05-19T01:14:26.380Z,66.84
2023-05-19T01:17:05.136Z,67.18
2023-05-19T01:19:50.682Z,66.69
2023-05-19T01:22:43.758Z,67.18
2023-05-19T01:25:46.827Z,67.68
2023-05-19T01:29:03.271Z,67.08
2023-05-19T01:31:33.719Z,67.54
2023-05-19T01:34:04.621Z,66.81
2023-05-19T01:36:37.555Z,67.18
2023-05-19T01:39:08.008Z,67.49
2023-05-19T01:41:38.363Z,67.12
2023-05-19T01:44:09.870Z,67.09
2023-05-19T01:46:40.379Z,67.18
2023-05-19T01:49:11.035Z,67.48
2023-05-19T01:51:40.632Z,67.89
2023-05-19T01:54:10.344Z,67.14
2023-05-19T01:56:49.384Z,67.88
2023-05-19T01:59:33.667Z,67.27
2023-05-19T02:02:08.841Z,68.00
2023-05-19T02:04:47.319Z,67.27
2023-05-19T02:07:31.515Z,68.08
2023-05-19T02:10:07.778Z,67.35
2023-05-19T02:12:39.759Z,68.18
2023-05-19T02:15:22.560Z,67.59
2023-05-19T02:17:53.877Z,68.02
2023-05-19T02:20:32.193Z,67.93
2023-05-19T02:23:06.117Z,67.81
2023-05-19T02:25:35.225Z,67.81
2023-05-19T02:28:06.396Z,67.65
2023-05-19T02:30:35.458Z,67.99
2023-05-19T02:33:08.151Z,68.18
2023-05-19T02:35:41.083Z,68.21
2023-05-19T02:38:10.022Z,68.67
2023-05-19T02:40:39.106Z,68.32
2023-05-19T02:43:08.100Z,68.51
2023-05-19T02:45:38.234Z,68.55
2023-05-19T02:48:07.273Z,68.31
2023-05-19T02:50:36.824Z,68.17
2023-05-19T02:53:07.737Z,68.40
2023-05-19T02:55:36.889Z,68.79
2023-05-19T02:58:10.869Z,68.25
2023-05-19T03:00:44.603Z,68.83
2023-05-19T03:03:16.189Z,68.74
2023-05-19T03:05:47.203Z,68.97
2023-05-19T03:08:16.070Z,68.84
2023-05-19T03:10:46.703Z,68.55
2023-05-19T03:13:16.747Z,68.90
2023-05-19T03:15:46.025Z,69.36
2023-05-19T03:18:16.102Z,69.14
2023-05-19T03:20:45.332Z,69.17
2023-05-19T03:23:15.479Z,68.94
2023-05-19T03:25:44.729Z,69.08
2023-05-19T03:28:17.041Z,68.87
2023-05-19T03:30:48.676Z,69.52
2023-05-19T03:33:20.589Z,68.86
2023-05-19T03:35:50.097Z,69.31
2023-05-19T03:38:19.307Z,69.28
2023-05-19T03:40:56.365Z,69.75
2023-05-19T03:43:26.056Z,69.91
2023-05-19T03:46:06.654Z,70.02
2023-05-19T03:48:55.884Z,70.18
2023-05-19T03:51:43.981Z,69.87
2023-05-19T03:54:27.505Z,69.71
2023-05-19T03:56:59.468Z,70.08
2023-05-19T03:59:28.799Z,70.59
2023-05-19T04:01:58.092Z,70.56
2023-05-19T04:04:32.981Z,70.05
2023-05-19T04:07:05.342Z,70.53
2023-05-19T04:09:36.525Z,70.66
2023-05-19T04:12:09.036Z,70.63
2023-05-19T04:14:39.237Z,70.22
2023-05-19T04:17:10.502Z,69.97
2023-05-19T04:19:39.643Z,70.42
2023-05-19T04:22:09.482Z,70.39
2023-05-19T04:24:40.515Z,70.54
2023-05-19T04:27:11.702Z,70.13
2023-05-19T04:29:43.252Z,70.28
2023-05-19T04:32:17.022Z,70.88
2023-05-19T04:34:46.323Z,71.00
2023-05-19T04:37:19.749Z,70.94
2023-05-19T04:39:48.994Z,71.30
2023-05-19T04:42:21.290Z,70.73
2023-05-19T04:44:51.369Z,70.61
2023-05-19T04:47:21.725Z,70.71
2023-05-19T04:49:55.209Z,70.52
2023-05-19T04:52:24.269Z,70.93
2023-05-19T04:54:56.226Z,71.48
2023-05-19T04:57:26.003Z,71.57
2023-05-19T04:59:59.382Z,70.57
2023-05-19T05:02:31.808Z,71.49
2023-05-19T05:05:03.743Z,71.51
2023-05-19T05:07:32.750Z,71.11
2023-05-19T05:10:04.012Z,70.77
2023-05-19T05:12:41.917Z,70.94
2023-05-19T05:15:20.813Z,70.99
2023-05-19T05:17:55.733Z,70.89
2023-05-19T05:20:28.566Z,71.57
2023-05-19T05:23:08.957Z,71.14
2023-05-19T05:25:43.850Z,71.30
2023-05-19T05:28:14.227Z,71.01
2023-05-19T05:30:50.105Z,70.89
2023-05-19T05:33:21.937Z,71.12
2023-05-19T05:35:54.692Z,71.75
2023-05-19T05:38:24.722Z,72.27
2023-05-19T05:40:55.943Z,71.60
2023-05-19T05:43:25.485Z,72.15
2023-05-19T05:45:58.712Z,71.78
2023-05-19T05:48:31.923Z,71.90
2023-05-19T05:51:09.984Z,71.97
2023-05-19T05:53:45.066Z,72.43
2023-05-19T05:56:18.423Z,71.92
2023-05-19T05:58:55.085Z,71.52
2023-05-19T06:01:27.121Z,71.86
2023-05-19T06:03:58.798Z,71.25
2023-05-19T06:06:32.929Z,71.82
2023-05-19T06:09:08.617Z,72.13
2023-05-19T06:11:45.736Z,71.80
2023-05-19T06:14:23.103Z,72.45
2023-05-19T06:17:15.199Z,71.35
2023-05-19T06:19:45.532Z,71.77
2023-05-19T06:22:15.583Z,72.48
2023-05-19T06:24:46.230Z,71.61
2023-05-19T06:27:16.720Z,71.96
2023-05-19T06:29:47.009Z,71.97
2023-05-19T06:32:16.490Z,72.04
2023-05-19T06:34:53.512Z,71.92
2023-05-19T06:37:24.684Z,71.47
2023-05-19T06:39:54.379Z,71.77
2023-05-19T06:42:26.989Z,72.01
2023-05-19T06:45:16.308Z,72.01
2023-05-19T06:47:49.282Z,71.67
2023-05-19T06:50:19.956Z,72.11
2023-05-19T06:52:52.697Z,72.15
2023-05-19T06:55:41.387Z,72.00
2023-05-19T06:58:25.643Z,72.14
2023-05-19T07:00:55.132Z,72.30
2023-05-19T07:03:26.854Z,71.84
2023-05-19T07:05:58.053Z,71.97
2023-05-19T07:08:27.902Z,71.64
2023-05-19T07:10:57.153Z,72.52
2023-05-19T07:13:27.670Z,72.12
2023-05-19T07:15:57.764Z,72.09
2023-05-19T07:18:31.252Z,72.28
2023-05-19T07:21:00.438Z,72.41
2023-05-19T07:23:29.957Z,72.13
2023-05-19T07:26:01.167Z,72.32
2023-05-19T07:28:30.116Z,72.73
2023-05-19T07:30:59.145Z,72.50
2023-05-19T07:33:27.931Z,72.01
2023-05-19T07:35:57.205Z,72.41
2023-05-19T07:38:26.464Z,71.46
2023-05-19T07:40:56.085Z,72.37
2023-05-19T07:43:25.810Z,71.85
2023-05-19T07:45:56.140Z,72.25
2023-05-19T07:48:29.202Z,72.59
2023-05-19T07:50:58.384Z,72.15
2023-05-19T07:53:29.769Z,71.96
2023-05-19T07:56:00.503Z,72.65
2023-05-19T07:58:32.281Z,72.90
2023-05-19T08:01:01.437Z,72.71
2023-05-19T08:03:30.786Z,71.99
2023-05-19T08:06:00.299Z,72.04
2023-05-19T08:08:33.605Z,72.65
2023-05-19T08:11:06.964Z,71.96
2023-05-19T08:13:36.202Z,72.49
2023-05-19T08:16:05.847Z,72.30
2023-05-19T08:18:35.084Z,72.06
2023-05-19T08:21:04.706Z,72.00
2023-05-19T08:23:34.750Z,71.98
2023-05-19T08:26:04.010Z,72.49
2023-05-19T08:28:32.871Z,72.25
2023-05-19T08:31:02.209Z,72.34
2023-05-19T08:33:33.974Z,72.06
2023-05-19T08:36:03.179Z,71.93
2023-05-19T08:38:33.482Z,71.96
2023-05-19T08:41:03.158Z,72.16
2023-05-19T08:43:32.285Z,72.87
2023-05-19T08:46:01.394Z,72.51
2023-05-19T08:48:35.258Z,72.91
2023-05-19T08:51:14.537Z,72.04
2023-05-19T08:53:50.351Z,72.58
2023-05-19T08:56:23.505Z,73.01
2023-05-19T08:58:53.144Z,72.19
2023-05-19T09:01:23.628Z,73.03
2023-05-19T09:03:52.878Z,72.37
2023-05-19T09:06:22.870Z,72.68
2023-05-19T09:08:54.689Z,72.70
2023-05-19T09:11:24.171Z,72.95
2023-05-19T09:13:55.506Z,72.67
2023-05-19T09:16:35.956Z,72.76
2023-05-19T09:19:15.594Z,72.12
2023-05-19T09:21:45.345Z,72.51
2023-05-19T09:24:17.563Z,72.24
2023-05-19T09:26:47.512Z,72.21
2023-05-19T09:29:17.810Z,72.11
2023-05-19T09:31:51.110Z,72.81
2023-05-19T09:34:21.057Z,72.00
2023-05-19T09:36:52.661Z,72.56
2023-05-19T09:39:22.824Z,72.53
2023-05-19T09:41:53.737Z,72.54
2023-05-19T09:44:28.718Z,72.12
2023-05-19T09:46:59.481Z,71.67
2023-05-19T09:49:30.285Z,72.26
2023-05-19T09:52:03.105Z,71.58
2023-05-19T09:54:33.887Z,72.09
2023-05-19T09:57:08.302Z,72.45
2023-05-19T09:59:38.881Z,72.75
2023-05-19T10:02:18.081Z,71.33
2023-05-19T10:04:48.242Z,72.53
2023-05-19T10:07:19.347Z,71.33
2023-05-19T10:09:50.635Z,72.17
2023-05-19T10:12:20.594Z,71.33
2023-05-19T10:14:49.696Z,72.11
2023-05-19T10:17:19.207Z,71.82
2023-05-19T10:19:54.289Z,71.62
2023-05-19T10:22:24.524Z,71.19
2023-05-19T10:24:55.545Z,71.01
2023-05-19T10:27:26.781Z,71.60
2023-05-19T10:30:00.551Z,71.22
2023-05-19T10:32:32.507Z,70.98
2023-05-19T10:35:32.619Z,71.29
2023-05-19T10:38:17.498Z,71.60
2023-05-19T10:40:58.100Z,70.99
2023-05-19T10:43:49.662Z,71.43
2023-05-19T10:46:23.181Z,70.89
2023-05-19T10:48:52.898Z,71.03
2023-05-19T10:51:35.593Z,70.51
2023-05-19T10:54:09.402Z,71.01
2023-05-19T10:56:43.300Z,70.84
2023-05-19T10:59:33.869Z,70.21
2023-05-19T11:02:07.431Z,70.69
2023-05-19T11:04:49.580Z,70.38
2023-05-19T11:07:24.631Z,69.97
2023-05-19T11:09:54.730Z,70.74
2023-05-19T11:12:25.352Z,70.13
2023-05-19T11:14:55.917Z,70.35
2023-05-19T11:17:26.858Z,70.24
2023-05-19T11:19:57.174Z,69.60
2023-05-19T11:22:28.237Z,69.62
2023-05-19T11:24:58.680Z,70.01
2023-05-19T11:27:32.171Z,70.36
2023-05-19T11:30:15.473Z,69.83
2023-05-19T11:32:48.434Z,69.82
2023-05-19T11:35:20.815Z,69.16
2023-05-19T11:37:51.775Z,69.76
2023-05-19T11:40:23.312Z,69.12
2023-05-19T11:42:52.770Z,69.32
2023-05-19T11:45:26.032Z,68.73
2023-05-19T11:48:02.549Z,69.52
2023-05-19T11:50:32.929Z,68.96
2023-05-19T11:53:07.011Z,68.97
2023-05-19T11:55:35.308Z,69.64
2023-05-19T11:58:06.034Z,68.88
2023-05-19T12:00:38.688Z,69.07
2023-05-19T12:03:10.680Z,69.03
2023-05-19T12:05:43.896Z,69.33
2023-05-19T12:08:14.513Z,68.71
2023-05-19T12:10:43.576Z,68.69
2023-05-19T12:13:14.748Z,68.55
2023-05-19T12:15:44.061Z,68.79
2023-05-19T12:18:14.686Z,68.40
2023-05-19T12:20:44.164Z,68.45
2023-05-19T12:23:14.823Z,68.31
2023-05-19T12:25:45.244Z,68.55
2023-05-19T12:28:16.058Z,68.31
2023-05-19T12:30:51.455Z,68.47
2023-05-19T12:33:21.832Z,68.60
2023-05-19T12:35:51.188Z,68.14
2023-05-19T12:38:21.787Z,68.48
2023-05-19T12:40:51.148Z,68.47
2023-05-19T12:43:28.717Z,68.15
2023-05-19T12:45:58.150Z,67.95
2023-05-19T12:48:28.540Z,68.19
2023-05-19T12:50:57.961Z,68.25
2023-05-19T12:53:30.786Z,68.31
2023-05-19T12:55:59.846Z,68.27
2023-05-19T12:58:28.835Z,68.05
2023-05-19T13:01:01.216Z,68.02
2023-05-19T13:03:30.398Z,67.44
2023-05-19T13:05:59.832Z,68.18
2023-05-19T13:08:37.526Z,67.66
2023-05-19T13:11:07.031Z,67.34
2023-05-19T13:13:36.353Z,68.10
2023-05-19T13:16:09.250Z,67.90
2023-05-19T13:18:39.204Z,68.03
2023-05-19T13:21:08.723Z,67.50
2023-05-19T13:23:38.016Z,68.02
2023-05-19T13:26:08.615Z,67.32
2023-05-19T13:28:40.859Z,67.29
2023-05-19T13:31:11.395Z,67.95
2023-05-19T13:33:42.870Z,67.82
2023-05-19T13:36:13.462Z,67.34
2023-05-19T13:38:45.806Z,68.08
2023-05-19T13:41:18.432Z,67.26
2023-05-19T13:43:50.497Z,67.83
2023-05-19T13:46:26.559Z,67.57
2023-05-19T13:49:11.092Z,67.30
2023-05-19T13:51:46.956Z,67.21
2023-05-19T13:54:17.472Z,67.65
2023-05-19T13:56:49.919Z,67.93
2023-05-19T13:59:20.889Z,67.98
2023-05-19T14:01:50.274Z,67.84
2023-05-19T14:04:27.838Z,67.94
2023-05-19T14:07:02.490Z,67.51
2023-05-19T14:09:34.946Z,67.86
2023-05-19T14:12:11.662Z,67.21
2023-05-19T14:14:41.257Z,67.56
2023-05-19T14:17:10.597Z,67.12
2023-05-19T14:19:40.659Z,67.66
2023-05-19T14:22:14.189Z,67.31
2023-05-19T14:24:43.180Z,68.10
2023-05-19T14:27:17.087Z,67.38
2023-05-19T14:29:48.266Z,67.47
2023-05-19T14:32:19.377Z,68.02
2023-05-19T14:34:52.264Z,67.89
2023-05-19T14:37:21.750Z,67.75
2023-05-19T14:39:53.573Z,67.65
2023-05-19T14:42:24.198Z,67.30
2023-05-19T14:44:53.795Z,67.32
2023-05-19T14:47:22.999Z,67.57
2023-05-19T14:49:54.840Z,68.04
2023-05-19T14:52:25.735Z,67.55
2023-05-19T14:54:57.910Z,67.62
2023-05-19T14:57:28.037Z,67.52
2023-05-19T14:59:59.199Z,67.84
2023-05-19T15:02:29.789Z,68.14
2023-05-19T15:05:23.412Z,68.04
2023-05-19T15:07:57.321Z,68.10
2023-05-19T15:10:35.777Z,68.14
2023-05-19T15:13:09.090Z,68.03
2023-05-19T15:15:38.089Z,67.81
2023-05-19T15:18:08.286Z,68.52
2023-05-19T15:20:37.478Z,67.78
2023-05-19T15:23:09.137Z,68.69
2023-05-19T15:25:38.459Z,68.61
2023-05-19T15:28:26.432Z,67.77
2023-05-19T15:30:56.025Z,67.89
2023-05-19T15:33:31.478Z,67.86
2023-05-19T15:36:03.932Z,68.88
2023-05-19T15:38:36.395Z,68.94
2023-05-19T15:41:09.013Z,68.88
2023-05-19T15:43:38.322Z,68.52
2023-05-19T15:46:10.169Z,68.31
2023-05-19T15:48:39.306Z,68.41
2023-05-19T15:51:11.948Z,68.17
2023-05-19T15:53:44.974Z,68.10
2023-05-19T15:56:16.770Z,67.97
2023-05-19T15:58:45.786Z,68.43
2023-05-19T16:01:16.555Z,68.95
2023-05-19T16:03:47.510Z,68.56
2023-05-19T16:06:17.926Z,68.60
2023-05-19T16:08:46.958Z,69.26
2023-05-19T16:11:20.626Z,69.11
2023-05-19T16:13:49.777Z,68.30
2023-05-19T16:16:20.587Z,69.25
2023-05-19T16:18:49.997Z,68.71
2023-05-19T16:21:20.834Z,68.92
2023-05-19T16:23:50.142Z,69.22
2023-05-19T16:26:27.370Z,68.53
2023-05-19T16:28:56.570Z,68.58
2023-05-19T16:31:29.083Z,69.50
2023-05-19T16:33:58.349Z,68.69
2023-05-19T16:36:34.323Z,69.74
2023-05-19T16:39:03.492Z,68.72
2023-05-19T16:41:33.111Z,69.03
2023-05-19T16:44:02.413Z,69.59
2023-05-19T16:46:33.945Z,69.58
2023-05-19T16:49:04.223Z,69.55
2023-05-19T16:51:33.855Z,69.64
2023-05-19T16:54:05.940Z,68.75
2023-05-19T16:56:36.802Z,69.58
2023-05-19T16:59:07.805Z,69.63
2023-05-19T17:01:38.286Z,69.04
2023-05-19T17:04:08.520Z,69.21
2023-05-19T17:06:39.042Z,69.11
2023-05-19T17:09:09.341Z,69.11
2023-05-19T17:11:41.016Z,69.37
2023-05-19T17:14:12.362Z,69.51
2023-05-19T17:16:46.362Z,69.31
2023-05-19T17:19:18.177Z,69.73
2023-05-19T17:21:51.220Z,69.60
2023-05-19T17:24:21.832Z,69.78
2023-05-19T17:26:51.551Z,69.99
2023-05-19T17:29:24.298Z,70.34
2023-05-19T17:31:56.397Z,69.30
2023-05-19T17:34:26.421Z,69.93
2023-05-19T17:37:02.278Z,69.58
2023-05-19T17:39:36.515Z,69.84
2023-05-19T17:42:07.113Z,70.43
2023-05-19T17:44:38.326Z,70.29
2023-05-19T17:47:10.931Z,70.72
2023-05-19T17:49:41.201Z,70.41
2023-05-19T17:52:16.082Z,69.90
2023-05-19T17:54:46.693Z,70.61
2023-05-19T17:57:20.348Z,70.48
2023-05-19T17:59:53.031Z,70.02
2023-05-19T18:02:23.566Z,70.01
2023-05-19T18:04:57.063Z,70.04
2023-05-19T18:07:28.147Z,70.02
2023-05-19T18:09:58.820Z,70.38
2023-05-19T18:12:29.468Z,70.49
2023-05-19T18:14:58.872Z,70.38
2023-05-19T18:17:28.071Z,70.48
2023-05-19T18:19:56.943Z,70.30
2023-05-19T18:22:27.692Z,71.27
2023-05-19T18:24:57.187Z,70.20
2023-05-19T18:27:34.817Z,71.20
2023-05-19T18:30:04.770Z,71.04
2023-05-19T18:32:35.646Z,71.66
2023-05-19T18:35:09.683Z,70.94
2023-05-19T18:37:37.897Z,71.46
2023-05-19T18:40:09.888Z,71.37
2023-05-19T18:42:47.877Z,71.42
2023-05-19T18:45:22.591Z,71.16
2023-05-19T18:47:52.890Z,70.67
2023-05-19T18:50:22.754Z,70.75
2023-05-19T18:52:52.144Z,70.64
2023-05-19T18:55:27.104Z,71.46
2023-05-19T18:57:56.140Z,71.73
2023-05-19T19:00:30.002Z,71.14
2023-05-19T19:03:17.117Z,71.24
2023-05-19T19:05:55.818Z,70.92
2023-05-19T19:08:29.142Z,70.79
2023-05-19T19:11:00.821Z,72.11
2023-05-19T19:13:30.589Z,72.11
2023-05-19T19:16:03.570Z,71.26
2023-05-19T19:18:36.006Z,71.65
2023-05-19T19:21:08.256Z,72.08
2023-05-19T19:23:38.940Z,71.95
2023-05-19T19:26:09.145Z,71.91
2023-05-19T19:28:38.657Z,71.97
2023-05-19T19:31:10.127Z,71.83
2023-05-19T19:33:44.625Z,71.83
2023-05-19T19:36:15.668Z,71.98
2023-05-19T19:38:50.084Z,72.33
2023-05-19T19:41:21.037Z,71.77
2023-05-19T19:43:53.848Z,71.54
2023-05-19T19:46:28.513Z,71.90
2023-05-19T19:49:05.868Z,72.19
2023-05-19T19:51:34.887Z,71.22
2023-05-19T19:54:09.831Z,72.16
2023-05-19T19:56:40.536Z,71.80
2023-05-19T19:59:30.744Z,71.96
2023-05-19T20:02:01.382Z,72.29
2023-05-19T20:04:34.381Z,72.53
2023-05-19T20:07:07.083Z,72.74
2023-05-19T20:09:36.073Z,71.92
2023-05-19T20:12:07.214Z,72.16
2023-05-19T20:14:40.238Z,72.64
2023-05-19T20:17:12.491Z,72.90
2023-05-19T20:19:42.789Z,72.87
2023-05-19T20:22:25.306Z,72.89
2023-05-19T20:24:55.226Z,72.96
2023-05-19T20:27:28.046Z,72.24
2023-05-19T20:29:57.149Z,72.82
2023-05-19T20:32:27.024Z,73.00
2023-05-19T20:34:57.756Z,73.06
2023-05-19T20:37:30.398Z,73.63
2023-05-19T20:40:10.699Z,72.64
2023-05-19T20:42:43.402Z,72.93
2023-05-19T20:45:21.074Z,73.17
2023-05-19T20:47:52.198Z,72.60
2023-05-19T20:50:21.518Z,72.67
2023-05-19T20:52:50.580Z,73.34
2023-05-19T20:55:19.610Z,72.97
2023-05-19T20:57:49.108Z,73.07
2023-05-19T21:00:22.150Z,73.66
2023-05-19T21:02:51.826Z,73.39
2023-05-19T21:05:22.797Z,73.12
2023-05-19T21:07:54.145Z,73.57
2023-05-19T21:10:23.316Z,73.83
2023-05-19T21:12:58.380Z,72.75
2023-05-19T21:15:28.831Z,73.48
2023-05-19T21:17:58.396Z,74.29
2023-05-19T21:20:28.749Z,73.49
2023-05-19T21:22:57.591Z,74.31
2023-05-19T21:25:27.572Z,73.83
2023-05-19T21:27:57.732Z,73.34
2023-05-19T21:30:26.629Z,73.48
2023-05-19T21:32:55.805Z,73.65
2023-05-19T21:35:27.100Z,73.52
2023-05-19T21:37:56.413Z,74.08
2023-05-19T21:40:25.519Z,73.61
2023-05-19T21:42:54.598Z,73.64
2023-05-19T21:45:24.938Z,73.03
2023-05-19T21:47:54.825Z,74.24
2023-05-19T21:50:24.191Z,73.47
2023-05-19T21:52:53.197Z,74.22
2023-05-19T21:55:22.760Z,73.62
2023-05-19T21:57:51.702Z,73.45
2023-05-19T22:00:20.708Z,74.34
2023-05-19T22:02:50.235Z,73.84
2023-05-19T22:05:22.284Z,74.05
2023-05-19T22:07:51.613Z,74.42
2023-05-19T22:10:21.994Z,73.85
2023-05-19T22:12:52.628Z,73.87
2023-05-19T22:15:21.873Z,74.23
2023-05-19T22:17:52.357Z,74.93
2023-05-19T22:20:21.620Z,74.75
2023-05-19T22:22:50.653Z,75.14
2023-05-19T22:25:20.874Z,75.11
2023-05-19T22:27:56.766Z,74.25
2023-05-19T22:30:25.869Z,74.59
2023-05-19T22:32:54.884Z,74.86
2023-05-19T22:35:24.142Z,74.87
2023-05-19T22:37:55.695Z,74.09
2023-05-19T22:40:25.088Z,75.54
2023-05-19T22:42:55.218Z,75.15
2023-05-19T22:45:25.329Z,74.93
2023-05-19T22:47:55.200Z,75.16
2023-05-19T22:50:24.386Z,74.83
2023-05-19T22:52:57.660Z,74.62
2023-05-19T22:55:26.554Z,75.49
2023-05-19T22:57:57.485Z,75.00
2023-05-19T23:00:26.391Z,74.81
2023-05-19T23:02:57.881Z,74.75
2023-05-19T23:05:27.226Z,75.20
2023-05-19T23:07:57.208Z,74.92
2023-05-19T23:10:35.456Z,74.99
2023-05-19T23:13:09.072Z,75.15
2023-05-19T23:15:38.260Z,74.81
2023-05-19T23:18:09.294Z,75.82
2023-05-19T23:20:39.336Z,76.09
2023-05-19T23:23:09.305Z,76.19
2023-05-19T23:25:41.558Z,75.38
2023-05-19T23:28:10.688Z,75.64
2023-05-19T23:30:40.354Z,75.65
2023-05-19T23:33:12.255Z,75.08
2023-05-19T23:35:45.547Z,75.99
2023-05-19T23:38:16.718Z,74.79
2023-05-19T23:40:45.567Z,75.42
2023-05-19T23:43:18.340Z,76.08
2023-05-19T23:45:47.137Z,75.48
2023-05-19T23:48:17.486Z,75.83
2023-05-19T23:50:46.707Z,75.82
2023-05-19T23:53:21.045Z,75.59
2023-05-19T23:55:51.572Z,75.76
2023-05-19T23:58:22.988Z,75.45
